sensor_id;sensor_type;location;lat;lon;timestamp;P1;durP1;ratioP1;P2;durP2;ratioP2
34541;SDS011;20784;51.332;12.410;2023-01-13T00:02:24;1.42;;;0.60;;
34541;SDS011;20784;51.332;12.410;2023-01-13T00:05:13;4.93;;;0.70;;
34541;SDS011;20784;51.332;12.410;2023-01-13T00:08:32;1.10;;;0.68;;
34541;SDS011;20784;51.332;12.410;2023-01-13T00:11:24;0.73;;;0.52;;
34541;SDS011;20784;51.332;12.410;2023-01-13T00:14:15;2.25;;;0.80;;
34541;SDS011;20784;51.332;12.410;2023-01-13T00:17:03;0.73;;;0.53;;
34541;SDS011;20784;51.332;12.410;2023-01-13T00:19:40;3.58;;;0.88;;
34541;SDS011;20784;51.332;12.410;2023-01-13T00:22:31;0.40;;;0.40;;
34541;SDS011;20784;51.332;12.410;2023-01-13T00:25:01;0.65;;;0.50;;
34541;SDS011;20784;51.332;12.410;2023-01-13T00:27:33;1.58;;;0.40;;
34541;SDS011;20784;51.332;12.410;2023-01-13T00:30:02;1.75;;;0.40;;
34541;SDS011;20784;51.332;12.410;2023-01-13T00:32:54;1.23;;;0.60;;
34541;SDS011;20784;51.332;12.410;2023-01-13T00:35:20;0.80;;;0.50;;
34541;SDS011;20784;51.332;12.410;2023-01-13T00:37:57;2.20;;;0.47;;
34541;SDS011;20784;51.332;12.410;2023-01-13T00:43:49;0.40;;;0.40;;
34541;SDS011;20784;51.332;12.410;2023-01-13T00:46:17;2.55;;;0.50;;
34541;SDS011;20784;51.332;12.410;2023-01-13T00:49:15;0.55;;;0.40;;
34541;SDS011;20784;51.332;12.410;2023-01-13T00:52:05;2.47;;;0.82;;
34541;SDS011;20784;51.332;12.410;2023-01-13T00:54:32;0.63;;;0.50;;
34541;SDS011;20784;51.332;12.410;2023-01-13T00:57:07;4.47;;;0.50;;
34541;SDS011;20784;51.332;12.410;2023-01-13T00:59:50;0.43;;;0.40;;
34541;SDS011;20784;51.332;12.410;2023-01-13T01:02:37;1.27;;;0.50;;
34541;SDS011;20784;51.332;12.410;2023-01-13T01:05:20;0.60;;;0.30;;
34541;SDS011;20784;51.332;12.410;2023-01-13T01:08:07;1.05;;;0.40;;
34541;SDS011;20784;51.332;12.410;2023-01-13T01:10:36;1.00;;;0.50;;
34541;SDS011;20784;51.332;12.410;2023-01-13T01:13:07;0.45;;;0.40;;
34541;SDS011;20784;51.332;12.410;2023-01-13T01:15:41;0.52;;;0.50;;
34541;SDS011;20784;51.332;12.410;2023-01-13T01:23:58;0.30;;;0.30;;
34541;SDS011;20784;51.332;12.410;2023-01-13T01:26:37;0.63;;;0.50;;
34541;SDS011;20784;51.332;12.410;2023-01-13T01:29:20;0.95;;;0.30;;
34541;SDS011;20784;51.332;12.410;2023-01-13T01:32:34;0.30;;;0.30;;
34541;SDS011;20784;51.332;12.410;2023-01-13T01:35:00;1.40;;;0.50;;
34541;SDS011;20784;51.332;12.410;2023-01-13T01:37:28;0.60;;;0.40;;
34541;SDS011;20784;51.332;12.410;2023-01-13T01:39:57;1.13;;;0.43;;
34541;SDS011;20784;51.332;12.410;2023-01-13T01:42:23;1.25;;;0.40;;
34541;SDS011;20784;51.332;12.410;2023-01-13T01:45:30;0.70;;;0.40;;
34541;SDS011;20784;51.332;12.410;2023-01-13T01:48:00;4.53;;;0.50;;
34541;SDS011;20784;51.332;12.410;2023-01-13T01:50:33;1.60;;;0.32;;
34541;SDS011;20784;51.332;12.410;2023-01-13T01:53:35;0.52;;;0.40;;
34541;SDS011;20784;51.332;12.410;2023-01-13T01:56:19;1.15;;;0.40;;
34541;SDS011;20784;51.332;12.410;2023-01-13T01:58:58;0.95;;;0.45;;
34541;SDS011;20784;51.332;12.410;2023-01-13T02:02:05;1.80;;;0.50;;
34541;SDS011;20784;51.332;12.410;2023-01-13T02:05:00;2.47;;;0.60;;
34541;SDS011;20784;51.332;12.410;2023-01-13T02:07:58;1.25;;;0.50;;
34541;SDS011;20784;51.332;12.410;2023-01-13T02:10:26;1.13;;;0.40;;
34541;SDS011;20784;51.332;12.410;2023-01-13T02:13:00;1.80;;;0.43;;
34541;SDS011;20784;51.332;12.410;2023-01-13T02:15:37;0.40;;;0.40;;
34541;SDS011;20784;51.332;12.410;2023-01-13T02:30:03;2.60;;;0.43;;
34541;SDS011;20784;51.332;12.410;2023-01-13T02:33:04;2.83;;;0.50;;
34541;SDS011;20784;51.332;12.410;2023-01-13T02:35:54;1.42;;;0.50;;
34541;SDS011;20784;51.332;12.410;2023-01-13T02:38:24;0.80;;;0.30;;
34541;SDS011;20784;51.332;12.410;2023-01-13T02:44:43;0.30;;;0.30;;
34541;SDS011;20784;51.332;12.410;2023-01-13T02:47:24;1.85;;;0.30;;
34541;SDS011;20784;51.332;12.410;2023-01-13T02:49:57;0.40;;;0.30;;
34541;SDS011;20784;51.332;12.410;2023-01-13T02:55:12;0.63;;;0.40;;
34541;SDS011;20784;51.332;12.410;2023-01-13T02:57:46;0.30;;;0.30;;
34541;SDS011;20784;51.332;12.410;2023-01-13T03:00:19;0.20;;;0.20;;
34541;SDS011;20784;51.332;12.410;2023-01-13T03:02:47;0.40;;;0.30;;
34541;SDS011;20784;51.332;12.410;2023-01-13T03:05:24;0.30;;;0.30;;
34541;SDS011;20784;51.332;12.410;2023-01-13T03:08:11;1.52;;;0.30;;
34541;SDS011;20784;51.332;12.410;2023-01-13T03:11:10;1.00;;;0.50;;
34541;SDS011;20784;51.332;12.410;2023-01-13T03:27:49;0.75;;;0.43;;
34541;SDS011;20784;51.332;12.410;2023-01-13T03:30:37;2.78;;;0.40;;
34541;SDS011;20784;51.332;12.410;2023-01-13T03:33:14;0.77;;;0.40;;
34541;SDS011;20784;51.332;12.410;2023-01-13T03:35:50;0.40;;;0.30;;
34541;SDS011;20784;51.332;12.410;2023-01-13T03:38:35;0.75;;;0.40;;
34541;SDS011;20784;51.332;12.410;2023-01-13T03:41:12;0.30;;;0.30;;
34541;SDS011;20784;51.332;12.410;2023-01-13T03:43:56;0.40;;;0.40;;
34541;SDS011;20784;51.332;12.410;2023-01-13T03:55:27;1.95;;;0.30;;
34541;SDS011;20784;51.332;12.410;2023-01-13T03:58:15;1.73;;;0.60;;
34541;SDS011;20784;51.332;12.410;2023-01-13T04:00:47;0.50;;;0.50;;
34541;SDS011;20784;51.332;12.410;2023-01-13T04:03:32;3.55;;;0.50;;
34541;SDS011;20784;51.332;12.410;2023-01-13T04:09:39;0.57;;;0.40;;
34541;SDS011;20784;51.332;12.410;2023-01-13T04:15:15;1.02;;;0.50;;
34541;SDS011;20784;51.332;12.410;2023-01-13T04:21:17;1.65;;;0.50;;
34541;SDS011;20784;51.332;12.410;2023-01-13T04:23:44;1.30;;;0.60;;
34541;SDS011;20784;51.332;12.410;2023-01-13T04:26:12;1.20;;;0.45;;
34541;SDS011;20784;51.332;12.410;2023-01-13T04:28:49;0.57;;;0.35;;
34541;SDS011;20784;51.332;12.410;2023-01-13T04:31:26;0.65;;;0.30;;
34541;SDS011;20784;51.332;12.410;2023-01-13T04:34:08;0.90;;;0.47;;
34541;SDS011;20784;51.332;12.410;2023-01-13T04:36:34;0.93;;;0.52;;
34541;SDS011;20784;51.332;12.410;2023-01-13T04:39:12;0.40;;;0.40;;
34541;SDS011;20784;51.332;12.410;2023-01-13T04:41:43;2.20;;;0.40;;
34541;SDS011;20784;51.332;12.410;2023-01-13T04:44:26;2.65;;;0.50;;
34541;SDS011;20784;51.332;12.410;2023-01-13T04:47:00;0.73;;;0.40;;
34541;SDS011;20784;51.332;12.410;2023-01-13T04:49:55;0.40;;;0.40;;
34541;SDS011;20784;51.332;12.410;2023-01-13T04:52:26;0.80;;;0.47;;
34541;SDS011;20784;51.332;12.410;2023-01-13T04:54:52;1.42;;;0.40;;
34541;SDS011;20784;51.332;12.410;2023-01-13T04:57:23;0.73;;;0.30;;
34541;SDS011;20784;51.332;12.410;2023-01-13T05:00:06;1.10;;;0.52;;
34541;SDS011;20784;51.332;12.410;2023-01-13T05:02:41;0.40;;;0.40;;
34541;SDS011;20784;51.332;12.410;2023-01-13T05:05:10;0.43;;;0.38;;
34541;SDS011;20784;51.332;12.410;2023-01-13T05:07:41;0.38;;;0.38;;
34541;SDS011;20784;51.332;12.410;2023-01-13T05:10:07;1.80;;;0.60;;
34541;SDS011;20784;51.332;12.410;2023-01-13T05:12:33;4.03;;;0.50;;
34541;SDS011;20784;51.332;12.410;2023-01-13T05:15:17;1.17;;;0.50;;
34541;SDS011;20784;51.332;12.410;2023-01-13T05:18:14;0.95;;;0.50;;
34541;SDS011;20784;51.332;12.410;2023-01-13T05:20:44;0.88;;;0.40;;
34541;SDS011;20784;51.332;12.410;2023-01-13T05:23:10;0.95;;;0.40;;
34541;SDS011;20784;51.332;12.410;2023-01-13T05:25:55;1.17;;;0.73;;
34541;SDS011;20784;51.332;12.410;2023-01-13T05:28:30;1.05;;;0.50;;
34541;SDS011;20784;51.332;12.410;2023-01-13T05:31:03;1.45;;;0.35;;
34541;SDS011;20784;51.332;12.410;2023-01-13T05:33:28;0.90;;;0.55;;
34541;SDS011;20784;51.332;12.410;2023-01-13T05:36:00;1.13;;;0.40;;
34541;SDS011;20784;51.332;12.410;2023-01-13T05:38:30;1.30;;;0.50;;
34541;SDS011;20784;51.332;12.410;2023-01-13T05:41:16;3.13;;;0.82;;
34541;SDS011;20784;51.332;12.410;2023-01-13T05:44:00;0.73;;;0.38;;
34541;SDS011;20784;51.332;12.410;2023-01-13T05:46:31;0.45;;;0.45;;
34541;SDS011;20784;51.332;12.410;2023-01-13T05:48:57;1.85;;;0.65;;
34541;SDS011;20784;51.332;12.410;2023-01-13T05:51:23;1.55;;;0.50;;
34541;SDS011;20784;51.332;12.410;2023-01-13T05:53:50;1.15;;;0.45;;
34541;SDS011;20784;51.332;12.410;2023-01-13T05:56:19;6.45;;;2.83;;
34541;SDS011;20784;51.332;12.410;2023-01-13T05:58:47;1.83;;;0.90;;
34541;SDS011;20784;51.332;12.410;2023-01-13T06:01:15;4.70;;;3.15;;
34541;SDS011;20784;51.332;12.410;2023-01-13T06:03:43;2.92;;;2.00;;
34541;SDS011;20784;51.332;12.410;2023-01-13T06:06:18;4.93;;;3.15;;
34541;SDS011;20784;51.332;12.410;2023-01-13T06:08:52;0.60;;;0.55;;
34541;SDS011;20784;51.332;12.410;2023-01-13T06:11:18;0.35;;;0.30;;
34541;SDS011;20784;51.332;12.410;2023-01-13T06:13:44;0.73;;;0.38;;
34541;SDS011;20784;51.332;12.410;2023-01-13T06:16:10;3.03;;;0.32;;
34541;SDS011;20784;51.332;12.410;2023-01-13T06:18:35;1.75;;;0.52;;
34541;SDS011;20784;51.332;12.410;2023-01-13T06:21:12;0.30;;;0.30;;
34541;SDS011;20784;51.332;12.410;2023-01-13T06:26:42;1.73;;;0.50;;
34541;SDS011;20784;51.332;12.410;2023-01-13T06:29:18;0.95;;;0.38;;
34541;SDS011;20784;51.332;12.410;2023-01-13T06:31:44;2.90;;;0.30;;
34541;SDS011;20784;51.332;12.410;2023-01-13T06:34:12;0.70;;;0.50;;
34541;SDS011;20784;51.332;12.410;2023-01-13T06:36:45;0.50;;;0.47;;
34541;SDS011;20784;51.332;12.410;2023-01-13T06:39:24;3.03;;;0.70;;
34541;SDS011;20784;51.332;12.410;2023-01-13T06:41:54;0.50;;;0.50;;
34541;SDS011;20784;51.332;12.410;2023-01-13T06:44:47;1.15;;;0.60;;
34541;SDS011;20784;51.332;12.410;2023-01-13T06:47:20;0.93;;;0.50;;
34541;SDS011;20784;51.332;12.410;2023-01-13T06:49:53;1.38;;;0.60;;
34541;SDS011;20784;51.332;12.410;2023-01-13T06:52:24;2.88;;;0.55;;
34541;SDS011;20784;51.332;12.410;2023-01-13T06:54:51;0.93;;;0.57;;
34541;SDS011;20784;51.332;12.410;2023-01-13T06:57:19;0.82;;;0.60;;
34541;SDS011;20784;51.332;12.410;2023-01-13T06:59:48;3.53;;;0.77;;
34541;SDS011;20784;51.332;12.410;2023-01-13T07:05:39;0.30;;;0.30;;
34541;SDS011;20784;51.332;12.410;2023-01-13T07:08:08;2.67;;;0.40;;
34541;SDS011;20784;51.332;12.410;2023-01-13T07:10:35;1.55;;;0.50;;
34541;SDS011;20784;51.332;12.410;2023-01-13T07:13:02;1.77;;;0.40;;
34541;SDS011;20784;51.332;12.410;2023-01-13T07:15:51;1.08;;;0.47;;
34541;SDS011;20784;51.332;12.410;2023-01-13T07:18:25;2.97;;;0.50;;
34541;SDS011;20784;51.332;12.410;2023-01-13T07:20:59;3.28;;;0.73;;
34541;SDS011;20784;51.332;12.410;2023-01-13T07:23:31;2.70;;;0.50;;
34541;SDS011;20784;51.332;12.410;2023-01-13T07:26:01;1.27;;;0.50;;
34541;SDS011;20784;51.332;12.410;2023-01-13T07:28:30;0.98;;;0.50;;
34541;SDS011;20784;51.332;12.410;2023-01-13T07:31:11;1.85;;;0.75;;
34541;SDS011;20784;51.332;12.410;2023-01-13T07:33:46;3.20;;;0.82;;
34541;SDS011;20784;51.332;12.410;2023-01-13T07:36:13;1.45;;;0.80;;
34541;SDS011;20784;51.332;12.410;2023-01-13T07:38:41;8.88;;;0.80;;
34541;SDS011;20784;51.332;12.410;2023-01-13T07:41:12;1.17;;;0.57;;
34541;SDS011;20784;51.332;12.410;2023-01-13T07:44:00;0.70;;;0.40;;
34541;SDS011;20784;51.332;12.410;2023-01-13T07:46:49;2.20;;;0.60;;
34541;SDS011;20784;51.332;12.410;2023-01-13T07:49:18;3.55;;;0.63;;
34541;SDS011;20784;51.332;12.410;2023-01-13T07:51:52;1.17;;;0.50;;
34541;SDS011;20784;51.332;12.410;2023-01-13T07:54:25;1.77;;;0.60;;
34541;SDS011;20784;51.332;12.410;2023-01-13T07:56:54;0.70;;;0.30;;
34541;SDS011;20784;51.332;12.410;2023-01-13T07:59:25;1.33;;;0.38;;
34541;SDS011;20784;51.332;12.410;2023-01-13T08:01:51;1.55;;;0.40;;
34541;SDS011;20784;51.332;12.410;2023-01-13T08:04:23;1.10;;;0.50;;
34541;SDS011;20784;51.332;12.410;2023-01-13T08:06:50;1.23;;;0.50;;
34541;SDS011;20784;51.332;12.410;2023-01-13T08:09:16;1.02;;;0.60;;
34541;SDS011;20784;51.332;12.410;2023-01-13T08:11:42;0.50;;;0.40;;
34541;SDS011;20784;51.332;12.410;2023-01-13T08:14:08;2.05;;;0.43;;
34541;SDS011;20784;51.332;12.410;2023-01-13T08:16:34;1.55;;;0.65;;
34541;SDS011;20784;51.332;12.410;2023-01-13T08:19:00;2.25;;;1.35;;
34541;SDS011;20784;51.332;12.410;2023-01-13T08:21:38;1.40;;;0.65;;
34541;SDS011;20784;51.332;12.410;2023-01-13T08:24:08;1.10;;;0.57;;
34541;SDS011;20784;51.332;12.410;2023-01-13T08:26:40;3.22;;;0.70;;
34541;SDS011;20784;51.332;12.410;2023-01-13T08:29:11;3.75;;;0.73;;
34541;SDS011;20784;51.332;12.410;2023-01-13T08:31:47;1.35;;;1.02;;
34541;SDS011;20784;51.332;12.410;2023-01-13T08:34:42;0.60;;;0.60;;
34541;SDS011;20784;51.332;12.410;2023-01-13T08:44:08;2.80;;;0.70;;
34541;SDS011;20784;51.332;12.410;2023-01-13T08:46:40;7.25;;;1.30;;
34541;SDS011;20784;51.332;12.410;2023-01-13T08:49:17;3.38;;;0.90;;
34541;SDS011;20784;51.332;12.410;2023-01-13T08:51:48;4.38;;;1.20;;
34541;SDS011;20784;51.332;12.410;2023-01-13T08:54:14;4.63;;;0.93;;
34541;SDS011;20784;51.332;12.410;2023-01-13T08:56:41;2.70;;;0.88;;
34541;SDS011;20784;51.332;12.410;2023-01-13T08:59:15;4.10;;;0.70;;
34541;SDS011;20784;51.332;12.410;2023-01-13T09:01:53;5.53;;;0.93;;
34541;SDS011;20784;51.332;12.410;2023-01-13T09:04:30;2.88;;;0.60;;
34541;SDS011;20784;51.332;12.410;2023-01-13T09:07:05;2.92;;;0.90;;
34541;SDS011;20784;51.332;12.410;2023-01-13T09:09:52;2.13;;;0.43;;
34541;SDS011;20784;51.332;12.410;2023-01-13T09:12:29;1.02;;;0.50;;
34541;SDS011;20784;51.332;12.410;2023-01-13T09:15:34;1.65;;;0.43;;
34541;SDS011;20784;51.332;12.410;2023-01-13T09:18:03;1.35;;;0.52;;
34541;SDS011;20784;51.332;12.410;2023-01-13T09:23:54;2.45;;;0.65;;
34541;SDS011;20784;51.332;12.410;2023-01-13T09:26:23;3.67;;;0.93;;
34541;SDS011;20784;51.332;12.410;2023-01-13T09:28:59;1.67;;;0.57;;
34541;SDS011;20784;51.332;12.410;2023-01-13T09:32:11;2.22;;;0.90;;
34541;SDS011;20784;51.332;12.410;2023-01-13T09:34:42;0.93;;;0.68;;
34541;SDS011;20784;51.332;12.410;2023-01-13T09:37:31;0.70;;;0.50;;
34541;SDS011;20784;51.332;12.410;2023-01-13T09:40:01;2.38;;;0.70;;
34541;SDS011;20784;51.332;12.410;2023-01-13T09:42:46;1.77;;;0.57;;
34541;SDS011;20784;51.332;12.410;2023-01-13T09:46:19;1.98;;;0.60;;
34541;SDS011;20784;51.332;12.410;2023-01-13T09:49:11;1.38;;;0.50;;
34541;SDS011;20784;51.332;12.410;2023-01-13T09:51:57;1.40;;;0.70;;
34541;SDS011;20784;51.332;12.410;2023-01-13T09:54:30;0.65;;;0.50;;
34541;SDS011;20784;51.332;12.410;2023-01-13T09:57:17;1.65;;;0.70;;
34541;SDS011;20784;51.332;12.410;2023-01-13T09:59:44;1.20;;;0.82;;
34541;SDS011;20784;51.332;12.410;2023-01-13T10:02:29;1.60;;;0.68;;
34541;SDS011;20784;51.332;12.410;2023-01-13T10:08:40;1.33;;;0.85;;
34541;SDS011;20784;51.332;12.410;2023-01-13T10:27:36;3.10;;;0.70;;
34541;SDS011;20784;51.332;12.410;2023-01-13T10:44:21;2.03;;;1.20;;
34541;SDS011;20784;51.332;12.410;2023-01-13T10:51:17;3.95;;;0.80;;
34541;SDS011;20784;51.332;12.410;2023-01-13T10:54:00;6.13;;;0.90;;
34541;SDS011;20784;51.332;12.410;2023-01-13T10:56:44;2.63;;;1.10;;
34541;SDS011;20784;51.332;12.410;2023-01-13T10:59:15;2.83;;;0.80;;
34541;SDS011;20784;51.332;12.410;2023-01-13T11:02:01;3.00;;;0.80;;
34541;SDS011;20784;51.332;12.410;2023-01-13T11:10:22;3.17;;;0.82;;
34541;SDS011;20784;51.332;12.410;2023-01-13T11:15:39;6.03;;;1.17;;
34541;SDS011;20784;51.332;12.410;2023-01-13T11:21:32;2.65;;;0.70;;
34541;SDS011;20784;51.332;12.410;2023-01-13T11:26:54;3.83;;;1.20;;
34541;SDS011;20784;51.332;12.410;2023-01-13T11:32:19;3.42;;;1.08;;
34541;SDS011;20784;51.332;12.410;2023-01-13T11:34:49;1.88;;;1.00;;
34541;SDS011;20784;51.332;12.410;2023-01-13T11:37:32;2.17;;;1.20;;
34541;SDS011;20784;51.332;12.410;2023-01-13T11:42:47;4.60;;;1.15;;
34541;SDS011;20784;51.332;12.410;2023-01-13T11:47:52;4.65;;;1.50;;
34541;SDS011;20784;51.332;12.410;2023-01-13T12:02:52;2.75;;;1.00;;
34541;SDS011;20784;51.332;12.410;2023-01-13T12:16:50;2.83;;;0.90;;
34541;SDS011;20784;51.332;12.410;2023-01-13T12:19:28;2.45;;;1.00;;
34541;SDS011;20784;51.332;12.410;2023-01-13T12:22:19;4.40;;;0.93;;
34541;SDS011;20784;51.332;12.410;2023-01-13T12:24:59;5.95;;;0.90;;
34541;SDS011;20784;51.332;12.410;2023-01-13T12:27:37;3.25;;;1.13;;
34541;SDS011;20784;51.332;12.410;2023-01-13T12:30:20;2.35;;;0.80;;
34541;SDS011;20784;51.332;12.410;2023-01-13T12:32:58;4.18;;;0.88;;
34541;SDS011;20784;51.332;12.410;2023-01-13T12:38:57;1.88;;;0.95;;
34541;SDS011;20784;51.332;12.410;2023-01-13T12:41:52;5.18;;;1.00;;
34541;SDS011;20784;51.332;12.410;2023-01-13T12:47:39;3.22;;;1.10;;
34541;SDS011;20784;51.332;12.410;2023-01-13T12:52:55;8.00;;;1.48;;
34541;SDS011;20784;51.332;12.410;2023-01-13T12:59:29;5.13;;;2.67;;
34541;SDS011;20784;51.332;12.410;2023-01-13T13:04:43;4.07;;;1.92;;
34541;SDS011;20784;51.332;12.410;2023-01-13T13:07:16;3.50;;;1.50;;
34541;SDS011;20784;51.332;12.410;2023-01-13T13:12:51;5.78;;;2.30;;
34541;SDS011;20784;51.332;12.410;2023-01-13T13:15:37;3.72;;;1.13;;
34541;SDS011;20784;51.332;12.410;2023-01-13T13:21:03;6.10;;;1.98;;
34541;SDS011;20784;51.332;12.410;2023-01-13T13:23:42;7.85;;;2.35;;
34541;SDS011;20784;51.332;12.410;2023-01-13T13:26:22;2.47;;;1.15;;
34541;SDS011;20784;51.332;12.410;2023-01-13T13:32:05;4.40;;;0.70;;
34541;SDS011;20784;51.332;12.410;2023-01-13T13:39:56;4.32;;;0.90;;
34541;SDS011;20784;51.332;12.410;2023-01-13T13:42:45;3.40;;;0.93;;
34541;SDS011;20784;51.332;12.410;2023-01-13T13:45:47;2.28;;;0.98;;
34541;SDS011;20784;51.332;12.410;2023-01-13T13:48:33;3.70;;;0.90;;
34541;SDS011;20784;51.332;12.410;2023-01-13T13:54:49;3.25;;;0.90;;
34541;SDS011;20784;51.332;12.410;2023-01-13T14:05:06;3.38;;;0.82;;
34541;SDS011;20784;51.332;12.410;2023-01-13T14:08:00;5.95;;;1.15;;
34541;SDS011;20784;51.332;12.410;2023-01-13T14:10:43;5.20;;;1.05;;
34541;SDS011;20784;51.332;12.410;2023-01-13T14:18:12;6.10;;;1.10;;
34541;SDS011;20784;51.332;12.410;2023-01-13T14:20:50;4.57;;;0.88;;
34541;SDS011;20784;51.332;12.410;2023-01-13T14:23:36;4.25;;;0.90;;
34541;SDS011;20784;51.332;12.410;2023-01-13T14:26:06;3.92;;;0.88;;
34541;SDS011;20784;51.332;12.410;2023-01-13T14:28:37;6.95;;;1.08;;
34541;SDS011;20784;51.332;12.410;2023-01-13T14:31:13;4.65;;;0.95;;
34541;SDS011;20784;51.332;12.410;2023-01-13T14:33:48;3.92;;;1.00;;
34541;SDS011;20784;51.332;12.410;2023-01-13T14:36:37;6.68;;;1.20;;
34541;SDS011;20784;51.332;12.410;2023-01-13T14:47:00;5.88;;;1.13;;
34541;SDS011;20784;51.332;12.410;2023-01-13T14:49:32;8.05;;;1.33;;
34541;SDS011;20784;51.332;12.410;2023-01-13T14:57:27;5.72;;;1.90;;
34541;SDS011;20784;51.332;12.410;2023-01-13T15:00:19;3.13;;;1.20;;
34541;SDS011;20784;51.332;12.410;2023-01-13T15:13:44;4.30;;;1.10;;
34541;SDS011;20784;51.332;12.410;2023-01-13T15:16:34;2.03;;;1.00;;
34541;SDS011;20784;51.332;12.410;2023-01-13T15:19:02;6.75;;;1.30;;
34541;SDS011;20784;51.332;12.410;2023-01-13T15:21:28;5.40;;;1.40;;
34541;SDS011;20784;51.332;12.410;2023-01-13T15:24:06;2.65;;;1.10;;
34541;SDS011;20784;51.332;12.410;2023-01-13T15:26:36;9.70;;;2.20;;
34541;SDS011;20784;51.332;12.410;2023-01-13T15:29:08;7.70;;;1.80;;
34541;SDS011;20784;51.332;12.410;2023-01-13T15:31:47;6.60;;;1.48;;
34541;SDS011;20784;51.332;12.410;2023-01-13T15:34:13;4.05;;;1.17;;
34541;SDS011;20784;51.332;12.410;2023-01-13T15:36:39;4.20;;;1.15;;
34541;SDS011;20784;51.332;12.410;2023-01-13T15:39:28;11.60;;;1.48;;
34541;SDS011;20784;51.332;12.410;2023-01-13T15:42:11;4.82;;;1.45;;
34541;SDS011;20784;51.332;12.410;2023-01-13T15:45:01;7.75;;;1.52;;
34541;SDS011;20784;51.332;12.410;2023-01-13T15:47:55;8.35;;;1.25;;
34541;SDS011;20784;51.332;12.410;2023-01-13T15:50:53;4.22;;;1.15;;
34541;SDS011;20784;51.332;12.410;2023-01-13T15:53:34;7.63;;;1.77;;
34541;SDS011;20784;51.332;12.410;2023-01-13T15:56:21;4.40;;;1.50;;
34541;SDS011;20784;51.332;12.410;2023-01-13T15:59:00;9.30;;;1.90;;
34541;SDS011;20784;51.332;12.410;2023-01-13T16:01:30;6.35;;;1.52;;
34541;SDS011;20784;51.332;12.410;2023-01-13T16:03:56;7.20;;;1.65;;
34541;SDS011;20784;51.332;12.410;2023-01-13T16:06:29;7.43;;;1.23;;
34541;SDS011;20784;51.332;12.410;2023-01-13T16:09:00;5.78;;;1.48;;
34541;SDS011;20784;51.332;12.410;2023-01-13T16:11:28;5.47;;;1.42;;
34541;SDS011;20784;51.332;12.410;2023-01-13T16:13:56;6.28;;;1.70;;
34541;SDS011;20784;51.332;12.410;2023-01-13T16:16:23;6.28;;;1.75;;
34541;SDS011;20784;51.332;12.410;2023-01-13T16:18:50;7.82;;;1.60;;
34541;SDS011;20784;51.332;12.410;2023-01-13T16:21:22;6.40;;;1.67;;
34541;SDS011;20784;51.332;12.410;2023-01-13T16:23:51;7.22;;;1.40;;
34541;SDS011;20784;51.332;12.410;2023-01-13T16:26:20;7.43;;;1.80;;
34541;SDS011;20784;51.332;12.410;2023-01-13T16:28:58;10.55;;;2.85;;
34541;SDS011;20784;51.332;12.410;2023-01-13T16:31:32;4.90;;;1.50;;
34541;SDS011;20784;51.332;12.410;2023-01-13T16:34:01;5.93;;;1.60;;
34541;SDS011;20784;51.332;12.410;2023-01-13T16:36:33;7.40;;;1.52;;
34541;SDS011;20784;51.332;12.410;2023-01-13T16:39:20;10.55;;;1.60;;
34541;SDS011;20784;51.332;12.410;2023-01-13T16:41:49;7.55;;;1.65;;
34541;SDS011;20784;51.332;12.410;2023-01-13T16:44:16;7.25;;;1.75;;
34541;SDS011;20784;51.332;12.410;2023-01-13T16:46:45;7.72;;;1.58;;
34541;SDS011;20784;51.332;12.410;2023-01-13T16:49:12;7.07;;;1.48;;
34541;SDS011;20784;51.332;12.410;2023-01-13T16:51:44;9.02;;;1.90;;
34541;SDS011;20784;51.332;12.410;2023-01-13T16:54:21;5.95;;;1.65;;
34541;SDS011;20784;51.332;12.410;2023-01-13T16:56:49;3.75;;;1.60;;
34541;SDS011;20784;51.332;12.410;2023-01-13T16:59:14;7.72;;;1.80;;
34541;SDS011;20784;51.332;12.410;2023-01-13T17:01:41;6.85;;;1.40;;
34541;SDS011;20784;51.332;12.410;2023-01-13T17:04:15;6.68;;;1.70;;
34541;SDS011;20784;51.332;12.410;2023-01-13T17:06:43;6.50;;;1.48;;
34541;SDS011;20784;51.332;12.410;2023-01-13T17:09:31;8.20;;;1.90;;
34541;SDS011;20784;51.332;12.410;2023-01-13T17:11:56;6.57;;;1.40;;
34541;SDS011;20784;51.332;12.410;2023-01-13T17:14:22;7.05;;;2.30;;
34541;SDS011;20784;51.332;12.410;2023-01-13T17:16:49;7.32;;;1.80;;
34541;SDS011;20784;51.332;12.410;2023-01-13T17:19:16;3.08;;;1.20;;
34541;SDS011;20784;51.332;12.410;2023-01-13T17:21:45;9.55;;;2.17;;
34541;SDS011;20784;51.332;12.410;2023-01-13T17:24:18;4.78;;;1.52;;
34541;SDS011;20784;51.332;12.410;2023-01-13T17:26:45;5.15;;;1.67;;
34541;SDS011;20784;51.332;12.410;2023-01-13T17:29:18;6.07;;;1.20;;
34541;SDS011;20784;51.332;12.410;2023-01-13T17:31:55;6.78;;;1.40;;
34541;SDS011;20784;51.332;12.410;2023-01-13T17:34:20;5.78;;;1.48;;
34541;SDS011;20784;51.332;12.410;2023-01-13T17:36:48;6.57;;;1.73;;
34541;SDS011;20784;51.332;12.410;2023-01-13T17:42:08;5.95;;;2.00;;
34541;SDS011;20784;51.332;12.410;2023-01-13T17:44:35;7.15;;;1.92;;
34541;SDS011;20784;51.332;12.410;2023-01-13T17:47:01;7.25;;;1.50;;
34541;SDS011;20784;51.332;12.410;2023-01-13T17:49:30;5.40;;;1.60;;
34541;SDS011;20784;51.332;12.410;2023-01-13T17:51:56;9.57;;;1.75;;
34541;SDS011;20784;51.332;12.410;2023-01-13T17:54:21;7.00;;;1.83;;
34541;SDS011;20784;51.332;12.410;2023-01-13T17:56:47;11.38;;;1.92;;
34541;SDS011;20784;51.332;12.410;2023-01-13T17:59:14;6.90;;;1.60;;
34541;SDS011;20784;51.332;12.410;2023-01-13T18:01:41;10.77;;;1.63;;
34541;SDS011;20784;51.332;12.410;2023-01-13T18:04:08;4.53;;;1.83;;
34541;SDS011;20784;51.332;12.410;2023-01-13T18:06:42;6.18;;;1.67;;
34541;SDS011;20784;51.332;12.410;2023-01-13T18:09:08;4.53;;;1.42;;
34541;SDS011;20784;51.332;12.410;2023-01-13T18:11:34;4.18;;;1.45;;
34541;SDS011;20784;51.332;12.410;2023-01-13T18:13:59;8.48;;;1.92;;
34541;SDS011;20784;51.332;12.410;2023-01-13T18:16:25;7.82;;;1.92;;
34541;SDS011;20784;51.332;12.410;2023-01-13T18:18:52;3.53;;;1.33;;
34541;SDS011;20784;51.332;12.410;2023-01-13T18:21:43;8.07;;;1.80;;
34541;SDS011;20784;51.332;12.410;2023-01-13T18:24:31;2.95;;;1.30;;
34541;SDS011;20784;51.332;12.410;2023-01-13T18:27:15;7.95;;;1.70;;
34541;SDS011;20784;51.332;12.410;2023-01-13T18:29:53;6.00;;;1.50;;
34541;SDS011;20784;51.332;12.410;2023-01-13T18:32:20;6.05;;;1.60;;
34541;SDS011;20784;51.332;12.410;2023-01-13T18:34:47;4.35;;;1.50;;
34541;SDS011;20784;51.332;12.410;2023-01-13T18:37:13;7.95;;;1.85;;
34541;SDS011;20784;51.332;12.410;2023-01-13T18:39:40;5.55;;;1.63;;
34541;SDS011;20784;51.332;12.410;2023-01-13T18:42:06;6.50;;;1.42;;
34541;SDS011;20784;51.332;12.410;2023-01-13T18:44:52;4.72;;;1.25;;
34541;SDS011;20784;51.332;12.410;2023-01-13T18:47:20;6.43;;;1.65;;
34541;SDS011;20784;51.332;12.410;2023-01-13T18:49:45;5.60;;;1.55;;
34541;SDS011;20784;51.332;12.410;2023-01-13T18:52:14;7.22;;;1.70;;
34541;SDS011;20784;51.332;12.410;2023-01-13T18:54:40;6.95;;;1.63;;
34541;SDS011;20784;51.332;12.410;2023-01-13T18:57:06;8.07;;;1.35;;
34541;SDS011;20784;51.332;12.410;2023-01-13T18:59:41;7.30;;;1.80;;
34541;SDS011;20784;51.332;12.410;2023-01-13T19:02:15;7.55;;;1.63;;
34541;SDS011;20784;51.332;12.410;2023-01-13T19:05:01;6.88;;;1.50;;
34541;SDS011;20784;51.332;12.410;2023-01-13T19:07:29;6.53;;;1.65;;
34541;SDS011;20784;51.332;12.410;2023-01-13T19:09:59;8.80;;;1.40;;
34541;SDS011;20784;51.332;12.410;2023-01-13T19:12:25;7.85;;;1.40;;
34541;SDS011;20784;51.332;12.410;2023-01-13T19:14:52;5.63;;;1.67;;
34541;SDS011;20784;51.332;12.410;2023-01-13T19:17:18;5.05;;;1.23;;
34541;SDS011;20784;51.332;12.410;2023-01-13T19:19:45;3.95;;;1.20;;